Time;durP1;ratioP1;P1;durP2;ratioP2;P2;SDS_P1;SDS_P2;PMS_P1;PMS_P2;Temp;Humidity;BMP_temperature;BMP_pressure;BME280_temperature;BME280_humidity;BME280_pressure;Samples;Min_cycle;Max_cycle;Signal;HPM_P1;HPM_P2
2023/04/20 00:00:51;;;;;;;6.18;3.90;;;6.60;99.90;;;;;;5057139;28;20033;-80
2023/04/20 00:03:20;;;;;;;6.55;4.32;;;6.70;99.90;;;;;;5054583;28;20045;-81
2023/04/20 00:05:48;;;;;;;6.50;3.85;;;6.80;99.90;;;;;;5064181;28;20445;-80
2023/04/20 00:08:14;;;;;;;5.55;3.80;;;6.80;99.90;;;;;;5043124;28;20036;-81
2023/04/20 00:10:40;;;;;;;5.53;3.92;;;6.90;99.90;;;;;;5061459;28;20214;-80
2023/04/20 00:13:05;;;;;;;7.20;3.55;;;6.90;99.90;;;;;;5070616;28;20141;-80
2023/04/20 00:15:32;;;;;;;5.32;3.50;;;7.00;99.90;;;;;;5071563;28;20122;-81
2023/04/20 00:17:57;;;;;;;3.95;3.13;;;7.10;99.90;;;;;;5069469;28;20450;-78
2023/04/20 00:20:23;;;;;;;4.30;3.45;;;7.00;99.90;;;;;;5041981;28;20066;-80
2023/04/20 00:22:49;;;;;;;8.45;3.28;;;7.00;99.90;;;;;;5067160;28;20618;-81
2023/04/20 00:25:14;;;;;;;5.82;3.45;;;7.00;99.90;;;;;;5041089;28;20039;-81
2023/04/20 00:27:40;;;;;;;7.50;3.58;;;7.00;99.90;;;;;;5070959;28;20121;-80
2023/04/20 00:30:06;;;;;;;4.25;3.30;;;7.00;99.90;;;;;;5043393;28;20512;-81
2023/04/20 00:32:32;;;;;;;5.13;3.17;;;7.00;99.90;;;;;;5072445;28;20036;-79
2023/04/20 00:34:58;;;;;;;5.57;3.25;;;6.90;99.90;;;;;;5065068;28;20032;-81
2023/04/20 00:37:24;;;;;;;8.35;3.38;;;6.90;99.90;;;;;;5054760;28;20382;-81
2023/04/20 00:39:50;;;;;;;3.78;3.22;;;6.90;99.90;;;;;;5069219;28;20131;-80
2023/04/20 00:42:16;;;;;;;6.05;3.10;;;6.90;99.90;;;;;;5056964;28;20040;-79
2023/04/20 00:44:41;;;;;;;7.00;3.63;;;6.90;99.90;;;;;;5057604;28;20050;-81
2023/04/20 00:47:07;;;;;;;3.40;3.10;;;7.10;99.90;;;;;;5054174;28;20047;-81
2023/04/20 00:49:33;;;;;;;4.55;3.00;;;7.00;99.90;;;;;;5061919;28;20036;-81
2023/04/20 00:51:59;;;;;;;3.88;3.28;;;7.20;99.90;;;;;;5036929;28;20033;-79
2023/04/20 00:54:27;;;;;;;3.13;2.83;;;7.10;99.90;;;;;;5035978;28;20047;-81
2023/04/20 00:56:54;;;;;;;4.05;3.20;;;7.80;99.90;;;;;;5053598;28;20040;-80
2023/04/20 00:59:21;;;;;;;4.97;2.88;;;7.40;99.90;;;;;;5060584;28;20047;-81
2023/04/20 01:01:47;;;;;;;5.13;3.30;;;7.30;99.90;;;;;;5060326;28;20040;-79
2023/04/20 01:04:12;;;;;;;7.20;3.08;;;7.50;99.90;;;;;;5043152;28;20546;-81
2023/04/20 01:06:38;;;;;;;5.93;3.08;;;7.60;99.90;;;;;;5053335;28;20028;-81
2023/04/20 01:09:03;;;;;;;6.43;2.97;;;7.70;99.90;;;;;;5066313;28;20044;-81
2023/04/20 01:11:29;;;;;;;3.25;2.95;;;7.90;99.90;;;;;;5066006;28;20040;-80
2023/04/20 01:13:54;;;;;;;4.18;2.75;;;7.80;99.90;;;;;;5057503;28;20058;-81
2023/04/20 01:16:21;;;;;;;5.57;3.00;;;7.80;99.90;;;;;;5043943;28;20040;-81
2023/04/20 01:18:48;;;;;;;4.10;2.90;;;7.90;99.90;;;;;;5062407;28;20078;-79
2023/04/20 01:21:16;;;;;;;6.15;2.47;;;7.90;99.90;;;;;;5073218;28;20085;-81
2023/04/20 01:23:42;;;;;;;4.40;3.13;;;8.10;99.90;;;;;;5068775;28;20047;-80
2023/04/20 01:26:09;;;;;;;3.47;2.50;;;8.10;99.90;;;;;;5059378;28;20033;-81
2023/04/20 01:28:35;;;;;;;4.07;2.85;;;8.00;99.90;;;;;;5056459;28;20507;-81
2023/04/20 01:31:02;;;;;;;5.28;2.92;;;8.30;99.90;;;;;;5041781;28;20028;-81
2023/04/20 01:33:28;;;;;;;3.63;2.58;;;8.40;99.90;;;;;;5053530;28;20040;-79
2023/04/20 01:35:54;;;;;;;5.10;2.47;;;8.30;99.90;;;;;;5041300;28;20059;-81
2023/04/20 01:38:21;;;;;;;5.03;2.78;;;8.40;99.90;;;;;;5068185;28;20059;-80
2023/04/20 01:40:47;;;;;;;5.38;2.95;;;8.50;99.90;;;;;;5069374;28;20048;-81
2023/04/20 01:43:13;;;;;;;4.95;2.42;;;8.80;99.90;;;;;;5063131;28;20047;-83
2023/04/20 01:45:39;;;;;;;4.28;2.60;;;8.60;99.90;;;;;;5059063;28;20060;-81
2023/04/20 01:48:05;;;;;;;4.45;2.70;;;8.60;99.90;;;;;;5063269;28;20188;-81
2023/04/20 01:50:30;;;;;;;4.90;2.35;;;8.60;99.90;;;;;;5058576;28;20040;-81
2023/04/20 01:52:56;;;;;;;4.07;2.17;;;8.60;99.90;;;;;;5047641;28;20036;-79
2023/04/20 01:55:22;;;;;;;9.60;2.63;;;8.50;99.90;;;;;;5067986;28;20048;-82
2023/04/20 01:57:47;;;;;;;5.53;3.03;;;8.60;99.90;;;;;;5064225;28;20129;-81
2023/04/20 02:00:13;;;;;;;4.82;2.30;;;8.50;99.90;;;;;;5076574;28;20085;-80
2023/04/20 02:02:39;;;;;;;3.03;2.00;;;8.70;99.90;;;;;;5060050;28;20503;-81
2023/04/20 02:05:04;;;;;;;3.03;2.47;;;8.40;99.90;;;;;;5067923;28;20051;-79
2023/04/20 02:07:30;;;;;;;3.08;2.50;;;8.60;99.90;;;;;;5067930;28;20075;-81
2023/04/20 02:09:56;;;;;;;3.60;2.60;;;8.40;99.90;;;;;;5069548;28;20035;-81
2023/04/20 02:12:21;;;;;;;6.05;2.60;;;8.50;99.90;;;;;;5055158;28;20036;-79
2023/04/20 02:14:47;;;;;;;5.70;3.10;;;8.50;99.90;;;;;;5054180;28;20044;-81
2023/04/20 02:17:13;;;;;;;5.20;2.30;;;8.70;99.90;;;;;;5065755;28;20043;-79
2023/04/20 02:19:39;;;;;;;5.97;2.50;;;8.50;99.90;;;;;;5066262;28;20032;-81
2023/04/20 02:22:05;;;;;;;5.57;2.33;;;8.60;99.90;;;;;;5064694;28;20045;-81
2023/04/20 02:24:31;;;;;;;3.55;2.25;;;8.60;99.90;;;;;;5049656;28;20039;-81
2023/04/20 02:26:57;;;;;;;5.43;2.70;;;8.50;99.90;;;;;;5058865;28;20040;-81
2023/04/20 02:29:23;;;;;;;5.80;2.60;;;8.40;99.90;;;;;;5061129;28;20089;-81
2023/04/20 02:31:49;;;;;;;3.85;2.55;;;8.30;99.90;;;;;;5060032;28;20033;-78
2023/04/20 02:34:15;;;;;;;4.55;2.53;;;8.50;99.90;;;;;;5062133;28;20396;-81
2023/04/20 02:36:40;;;;;;;4.32;3.00;;;8.40;99.90;;;;;;5060536;28;20040;-81
2023/04/20 02:39:06;;;;;;;4.28;2.60;;;8.40;99.90;;;;;;5060493;28;20396;-81
2023/04/20 02:41:32;;;;;;;3.22;2.50;;;8.40;99.90;;;;;;5044499;28;20059;-80
2023/04/20 02:43:57;;;;;;;4.13;2.65;;;8.20;99.90;;;;;;5043057;28;20126;-79
2023/04/20 02:46:23;;;;;;;4.53;3.00;;;8.20;99.90;;;;;;5075471;28;20033;-80
2023/04/20 02:48:49;;;;;;;5.22;2.55;;;8.10;99.90;;;;;;5058696;28;20043;-81
2023/04/20 02:51:14;;;;;;;3.55;2.53;;;8.10;99.90;;;;;;5067399;28;20496;-81
2023/04/20 02:53:40;;;;;;;6.28;2.65;;;7.90;99.90;;;;;;5067062;28;20047;-81
2023/04/20 02:56:06;;;;;;;4.10;2.40;;;8.20;99.90;;;;;;5072881;28;20407;-79
2023/04/20 02:58:31;;;;;;;6.63;2.95;;;8.00;99.90;;;;;;5060123;28;20051;-82
2023/04/20 03:01:01;;;;;;;3.85;2.60;;;8.00;99.90;;;;;;5044460;28;20480;-81
2023/04/20 03:03:30;;;;;;;4.38;2.28;;;8.00;99.90;;;;;;5066957;28;20040;-81
2023/04/20 03:05:55;;;;;;;5.20;2.70;;;8.00;99.90;;;;;;5063640;28;20036;-81
2023/04/20 03:08:21;;;;;;;5.38;2.95;;;8.10;99.90;;;;;;5075434;28;20118;-81
2023/04/20 03:10:47;;;;;;;4.50;2.72;;;8.10;99.90;;;;;;5041577;28;20043;-81
2023/04/20 03:13:13;;;;;;;3.50;2.42;;;8.10;99.90;;;;;;5048044;28;20040;-80
2023/04/20 03:15:39;;;;;;;5.60;2.50;;;8.20;99.90;;;;;;5048641;28;20044;-81
2023/04/20 03:18:05;;;;;;;3.47;2.70;;;8.20;99.90;;;;;;5071908;28;20040;-81
2023/04/20 03:20:31;;;;;;;3.50;2.35;;;8.40;99.90;;;;;;5059099;28;20063;-78
2023/04/20 03:22:57;;;;;;;4.95;2.70;;;8.30;99.90;;;;;;5056426;28;20036;-78
2023/04/20 03:25:22;;;;;;;5.35;3.05;;;8.30;99.90;;;;;;5065098;28;20427;-81
2023/04/20 03:27:48;;;;;;;5.63;3.05;;;8.30;99.90;;;;;;5063667;28;20036;-81
2023/04/20 03:30:14;;;;;;;5.40;3.03;;;8.40;99.90;;;;;;5058187;28;20032;-80
2023/04/20 03:32:41;;;;;;;6.30;3.17;;;8.40;99.90;;;;;;5062747;28;20041;-81
2023/04/20 03:35:07;;;;;;;5.28;3.03;;;8.30;99.90;;;;;;5055471;28;20416;-81
2023/04/20 03:37:35;;;;;;;5.70;3.40;;;8.40;99.90;;;;;;5057828;28;20054;-80
2023/04/20 03:40:00;;;;;;;4.18;3.35;;;8.40;99.90;;;;;;5071686;28;20064;-80
2023/04/20 03:42:26;;;;;;;4.63;3.13;;;8.30;99.90;;;;;;5073788;28;20099;-81
2023/04/20 03:44:51;;;;;;;4.30;3.08;;;8.30;99.90;;;;;;5041237;28;20106;-80
2023/04/20 03:47:17;;;;;;;6.93;3.30;;;8.30;99.90;;;;;;5063092;28;20106;-80
2023/04/20 03:49:42;;;;;;;5.25;3.10;;;8.30;99.90;;;;;;5062291;28;20162;-81
2023/04/20 03:52:08;;;;;;;4.45;2.80;;;8.40;99.90;;;;;;5074224;28;20039;-81
2023/04/20 03:54:33;;;;;;;5.93;3.50;;;8.30;99.90;;;;;;5065310;28;20115;-80
2023/04/20 03:56:59;;;;;;;5.15;3.00;;;8.20;99.90;;;;;;5064366;28;20086;-80
2023/04/20 03:59:25;;;;;;;3.97;3.00;;;8.40;99.90;;;;;;5054013;28;20044;-80
2023/04/20 04:01:51;;;;;;;6.55;2.97;;;8.40;99.90;;;;;;5056822;28;20508;-80
2023/04/20 04:04:17;;;;;;;6.72;3.30;;;8.30;99.90;;;;;;5060512;28;20039;-80
2023/04/20 04:06:42;;;;;;;5.60;3.22;;;8.30;99.90;;;;;;5069002;28;20032;-81
2023/04/20 04:09:08;;;;;;;4.70;2.78;;;8.70;99.90;;;;;;5069544;28;20085;-80
2023/04/20 04:11:34;;;;;;;5.20;2.83;;;8.30;99.90;;;;;;5061798;28;20504;-78
2023/04/20 04:14:00;;;;;;;4.30;3.10;;;8.40;99.90;;;;;;5061328;28;20040;-80
2023/04/20 04:16:25;;;;;;;6.45;3.45;;;8.30;99.90;;;;;;5053079;28;20694;-80
2023/04/20 04:18:51;;;;;;;3.53;2.72;;;8.30;99.90;;;;;;5062083;28;20374;-80
2023/04/20 04:21:16;;;;;;;4.72;2.97;;;8.40;99.90;;;;;;5060403;28;20120;-80
2023/04/20 04:23:42;;;;;;;4.15;3.28;;;8.40;99.90;;;;;;5059978;28;20561;-81
2023/04/20 04:26:08;;;;;;;5.53;2.75;;;8.40;99.90;;;;;;5062613;28;20047;-76
2023/04/20 04:28:34;;;;;;;5.25;3.10;;;8.40;99.90;;;;;;5058783;28;20035;-78
2023/04/20 04:31:04;;;;;;;4.60;2.75;;;8.40;99.90;;;;;;5059472;28;20033;-80
2023/04/20 04:33:32;;;;;;;5.47;2.47;;;8.40;99.90;;;;;;5058596;28;20766;-80
2023/04/20 04:35:59;;;;;;;4.20;2.60;;;8.40;99.90;;;;;;5061355;28;20040;-81
2023/04/20 04:38:25;;;;;;;5.03;2.58;;;8.30;99.90;;;;;;5052863;28;20051;-78
2023/04/20 04:40:51;;;;;;;5.90;2.90;;;8.50;99.90;;;;;;5056949;28;20082;-80
2023/04/20 04:43:18;;;;;;;4.38;2.60;;;8.30;99.90;;;;;;5046055;28;20093;-80
2023/04/20 04:45:44;;;;;;;4.35;2.40;;;8.30;99.90;;;;;;5051167;28;20441;-80
2023/04/20 04:48:11;;;;;;;8.85;3.53;;;8.30;99.90;;;;;;5059292;28;20033;-80
2023/04/20 04:50:37;;;;;;;3.90;2.60;;;8.30;99.90;;;;;;5062948;28;20028;-80
2023/04/20 04:53:03;;;;;;;3.50;2.92;;;8.30;99.90;;;;;;5042817;28;20550;-78
2023/04/20 04:55:28;;;;;;;4.18;2.90;;;8.00;99.90;;;;;;5060167;28;20127;-80
2023/04/20 04:57:54;;;;;;;5.03;2.92;;;8.20;99.90;;;;;;5060076;28;20112;-80
2023/04/20 05:00:21;;;;;;;4.75;2.90;;;8.30;99.90;;;;;;5061826;28;20047;-80
2023/04/20 05:02:47;;;;;;;3.67;2.33;;;8.30;99.90;;;;;;5047027;28;20085;-80
2023/04/20 05:05:13;;;;;;;4.63;2.70;;;8.30;99.90;;;;;;5053243;28;20430;-80
2023/04/20 05:07:39;;;;;;;2.95;2.70;;;8.50;99.90;;;;;;5063790;28;20396;-80
2023/04/20 05:10:06;;;;;;;5.55;2.58;;;8.20;99.90;;;;;;5056650;28;20033;-80
2023/04/20 05:12:32;;;;;;;3.10;2.60;;;8.30;99.90;;;;;;5047173;28;20491;-80
2023/04/20 05:14:58;;;;;;;3.15;2.42;;;8.20;99.90;;;;;;5069090;28;20047;-80
2023/04/20 05:17:24;;;;;;;3.80;2.30;;;8.30;99.90;;;;;;5064583;28;20543;-78
2023/04/20 05:19:49;;;;;;;5.60;2.75;;;8.00;99.90;;;;;;5067098;28;20742;-80
2023/04/20 05:22:16;;;;;;;3.00;2.35;;;8.30;99.90;;;;;;5064823;28;20044;-80
2023/04/20 05:24:41;;;;;;;3.05;2.42;;;8.10;99.90;;;;;;5055465;28;20077;-80
2023/04/20 05:27:08;;;;;;;6.18;2.42;;;8.10;99.90;;;;;;5056878;28;20063;-79
2023/04/20 05:29:33;;;;;;;5.78;2.85;;;7.90;99.90;;;;;;5043990;28;20150;-80
2023/04/20 05:31:59;;;;;;;4.57;2.53;;;8.40;99.90;;;;;;5060947;28;20095;-80
2023/04/20 05:34:25;;;;;;;3.42;2.20;;;8.10;99.90;;;;;;5047093;28;20047;-80
2023/04/20 05:36:51;;;;;;;4.88;2.40;;;8.10;99.90;;;;;;5051407;28;20040;-81
2023/04/20 05:39:17;;;;;;;4.72;2.65;;;8.00;99.90;;;;;;5045385;28;20051;-81
2023/04/20 05:41:43;;;;;;;7.95;2.90;;;8.00;99.90;;;;;;5044613;28;20043;-82
2023/04/20 05:44:09;;;;;;;6.30;2.83;;;7.90;99.90;;;;;;5043258;28;20044;-80
2023/04/20 05:46:35;;;;;;;3.15;2.60;;;8.00;99.90;;;;;;5049101;28;20035;-81
2023/04/20 05:49:00;;;;;;;3.13;2.40;;;8.00;99.90;;;;;;5061584;28;20036;-82
2023/04/20 05:51:29;;;;;;;3.22;2.30;;;8.20;99.90;;;;;;5045254;28;20082;-82
2023/04/20 05:53:54;;;;;;;5.75;2.85;;;7.80;99.90;;;;;;5066186;28;20040;-79
2023/04/20 05:56:20;;;;;;;4.82;2.80;;;7.80;99.90;;;;;;5060669;28;20526;-85
2023/04/20 05:58:47;;;;;;;5.53;3.08;;;7.90;99.90;;;;;;5065380;28;20036;-84
2023/04/20 06:01:12;;;;;;;5.70;3.10;;;8.00;99.90;;;;;;5054034;28;20040;-82
2023/04/20 06:03:38;;;;;;;4.28;3.40;;;8.10;99.90;;;;;;5061764;28;20029;-81
2023/04/20 06:06:04;;;;;;;5.05;3.50;;;7.80;99.90;;;;;;5061860;28;20506;-85
2023/04/20 06:08:30;;;;;;;4.18;3.47;;;7.70;99.90;;;;;;5051639;28;20043;-83
2023/04/20 06:10:56;;;;;;;6.47;3.70;;;7.60;99.90;;;;;;5068423;28;20036;-84
2023/04/20 06:13:22;;;;;;;5.03;3.50;;;7.60;99.90;;;;;;5047698;28;20435;-84
2023/04/20 06:15:48;;;;;;;6.05;3.85;;;7.60;99.90;;;;;;5063889;28;20548;-82
2023/04/20 06:18:14;;;;;;;4.82;3.42;;;7.60;99.90;;;;;;5069636;28;20040;-85
2023/04/20 06:20:42;;;;;;;5.63;3.47;;;7.50;99.90;;;;;;5058057;28;20039;-82
2023/04/20 06:23:08;;;;;;;5.20;3.85;;;7.50;99.90;;;;;;5054165;28;20036;-85
2023/04/20 06:25:35;;;;;;;6.80;4.00;;;7.50;99.90;;;;;;5076272;28;20161;-81
2023/04/20 06:28:02;;;;;;;6.40;4.05;;;7.40;99.90;;;;;;5068637;28;20039;-82
2023/04/20 06:30:28;;;;;;;6.47;4.25;;;7.60;99.90;;;;;;5063289;28;20051;-81
2023/04/20 06:32:55;;;;;;;7.00;4.10;;;7.40;99.90;;;;;;5075314;28;20046;-81
2023/04/20 06:35:22;;;;;;;8.27;4.28;;;7.40;99.90;;;;;;5068421;28;20047;-82
2023/04/20 06:37:48;;;;;;;6.40;3.75;;;7.60;99.90;;;;;;5057321;28;20036;-82
2023/04/20 06:40:14;;;;;;;6.10;4.35;;;7.40;99.90;;;;;;5060002;28;20111;-82
2023/04/20 06:42:39;;;;;;;5.85;4.55;;;7.40;99.90;;;;;;5074911;28;20643;-83
2023/04/20 06:45:06;;;;;;;6.07;4.85;;;7.50;99.90;;;;;;5048342;28;20036;-82
2023/04/20 06:47:32;;;;;;;6.32;4.88;;;7.40;99.90;;;;;;5074991;28;20028;-81
2023/04/20 06:49:59;;;;;;;5.47;4.40;;;7.40;99.90;;;;;;5052272;28;20040;-81
2023/04/20 06:52:25;;;;;;;8.40;4.28;;;7.50;99.90;;;;;;5047034;28;20042;-83
2023/04/20 06:54:51;;;;;;;6.82;4.22;;;7.60;99.90;;;;;;5051454;28;20036;-83
2023/04/20 06:57:16;;;;;;;6.95;4.50;;;7.40;99.90;;;;;;5047569;28;20076;-81
2023/04/20 06:59:42;;;;;;;5.78;4.40;;;7.40;99.90;;;;;;5048505;28;20032;-82
2023/04/20 07:02:07;;;;;;;5.82;4.20;;;7.40;99.90;;;;;;5064702;28;20052;-83
2023/04/20 07:04:33;;;;;;;7.35;4.60;;;7.30;99.90;;;;;;5063950;28;20042;-83
2023/04/20 07:06:58;;;;;;;8.07;4.63;;;7.00;99.90;;;;;;5074862;28;20091;-80
2023/04/20 07:09:24;;;;;;;6.22;4.90;;;7.30;99.90;;;;;;5047969;28;20052;-83
2023/04/20 07:11:49;;;;;;;6.22;4.60;;;7.50;99.90;;;;;;5072968;28;20576;-80
2023/04/20 07:14:15;;;;;;;7.35;4.75;;;7.10;99.90;;;;;;5056928;28;20067;-80
2023/04/20 07:16:41;;;;;;;5.35;4.75;;;7.10;99.90;;;;;;5073511;28;20036;-79
2023/04/20 07:19:06;;;;;;;6.60;4.63;;;7.10;99.90;;;;;;5069875;28;20072;-82
2023/04/20 07:21:32;;;;;;;6.60;4.88;;;7.10;99.90;;;;;;5063873;28;20059;-81
2023/04/20 07:23:58;;;;;;;5.57;4.70;;;7.10;99.90;;;;;;5064128;28;20559;-81
2023/04/20 07:26:24;;;;;;;5.65;4.47;;;7.10;99.90;;;;;;5048162;28;20121;-81
2023/04/20 07:28:50;;;;;;;7.57;4.95;;;7.00;99.90;;;;;;5074881;28;20630;-83
2023/04/20 07:31:16;;;;;;;5.85;4.20;;;7.10;99.90;;;;;;5044104;28;20445;-81
2023/04/20 07:33:43;;;;;;;6.25;4.05;;;7.20;99.90;;;;;;5067252;28;20043;-80
2023/04/20 07:36:09;;;;;;;6.80;4.55;;;7.10;99.90;;;;;;5049729;28;20043;-80
2023/04/20 07:38:35;;;;;;;8.95;4.43;;;7.30;99.90;;;;;;5057026;28;20063;-81
2023/04/20 07:41:01;;;;;;;6.53;4.95;;;7.30;99.90;;;;;;5058026;28;20036;-81
2023/04/20 07:43:27;;;;;;;7.95;6.03;;;7.60;99.90;;;;;;5054463;28;20044;-82
2023/04/20 07:45:53;;;;;;;7.15;5.05;;;7.60;99.90;;;;;;5075583;28;20093;-83
2023/04/20 07:48:19;;;;;;;7.75;5.25;;;7.80;99.90;;;;;;5056253;28;20036;-83
2023/04/20 07:50:45;;;;;;;5.65;4.47;;;7.80;99.90;;;;;;5060617;28;20028;-83
2023/04/20 07:53:11;;;;;;;7.97;4.93;;;7.70;99.90;;;;;;5068572;28;20450;-83
2023/04/20 07:55:37;;;;;;;5.90;4.55;;;7.90;99.90;;;;;;5067701;28;20044;-84
2023/04/20 07:58:02;;;;;;;7.13;4.70;;;8.10;99.90;;;;;;5043599;28;20086;-81
2023/04/20 08:00:28;;;;;;;6.43;4.43;;;8.30;99.90;;;;;;5047940;28;20408;-82
2023/04/20 08:02:54;;;;;;;6.40;4.65;;;8.50;99.90;;;;;;5050145;28;20035;-83
2023/04/20 08:05:19;;;;;;;6.53;4.63;;;8.30;99.90;;;;;;5053260;28;20066;-84
2023/04/20 08:07:45;;;;;;;7.85;5.15;;;8.70;99.90;;;;;;5054016;28;20037;-85
2023/04/20 08:10:11;;;;;;;7.13;5.13;;;8.30;99.90;;;;;;5043573;28;20040;-84
2023/04/20 08:12:38;;;;;;;7.05;5.05;;;8.90;99.90;;;;;;5045015;28;20488;-84
2023/04/20 08:15:05;;;;;;;7.65;5.35;;;8.20;99.90;;;;;;5050880;28;20565;-84
2023/04/20 08:17:32;;;;;;;7.43;4.45;;;8.30;99.90;;;;;;5050230;28;20111;-82
2023/04/20 08:19:57;;;;;;;6.32;4.78;;;8.30;99.90;;;;;;5053778;28;20059;-84
2023/04/20 08:22:26;;;;;;;6.47;4.95;;;8.20;99.90;;;;;;5059094;28;20036;-84
2023/04/20 08:24:51;;;;;;;7.70;5.07;;;8.30;99.90;;;;;;5067946;28;20048;-82
2023/04/20 08:27:17;;;;;;;7.93;5.30;;;8.10;99.90;;;;;;5068238;28;20042;-82
2023/04/20 08:29:43;;;;;;;7.32;5.55;;;8.30;99.90;;;;;;5064230;28;20064;-82
2023/04/20 08:32:11;;;;;;;9.05;5.20;;;8.50;99.90;;;;;;5052221;28;20043;-81
2023/04/20 08:34:37;;;;;;;8.30;5.25;;;8.40;99.90;;;;;;5074358;28;20062;-84
2023/04/20 08:37:03;;;;;;;8.48;5.32;;;8.50;99.90;;;;;;5070753;28;20325;-83
2023/04/20 08:39:29;;;;;;;7.43;5.43;;;8.40;99.90;;;;;;5050300;28;20044;-81
2023/04/20 08:41:55;;;;;;;6.97;5.90;;;8.60;99.90;;;;;;5048304;28;20036;-80
2023/04/20 08:44:21;;;;;;;8.25;5.63;;;8.70;99.90;;;;;;5070663;28;20058;-79
2023/04/20 08:46:48;;;;;;;6.90;5.30;;;8.80;99.90;;;;;;5064948;28;20028;-80
2023/04/20 08:49:14;;;;;;;8.52;5.70;;;9.00;99.90;;;;;;5050370;28;20484;-80
2023/04/20 08:51:41;;;;;;;7.53;5.80;;;9.10;99.90;;;;;;5067563;28;20043;-80
2023/04/20 08:54:06;;;;;;;6.80;6.10;;;9.10;99.90;;;;;;5061237;28;20504;-80
2023/04/20 08:56:37;;;;;;;7.03;5.65;;;9.30;99.90;;;;;;5050006;28;20036;-80
2023/04/20 08:59:04;;;;;;;7.43;5.50;;;9.20;99.90;;;;;;5059019;28;20479;-80
2023/04/20 09:01:30;;;;;;;7.03;5.72;;;9.50;99.90;;;;;;5065399;28;20115;-79
2023/04/20 09:03:55;;;;;;;8.73;6.22;;;9.10;99.90;;;;;;5054110;28;20036;-80
2023/04/20 09:06:21;;;;;;;7.30;5.25;;;9.20;99.90;;;;;;5058021;28;20031;-81
2023/04/20 09:08:48;;;;;;;11.43;6.15;;;9.30;99.90;;;;;;5050020;28;20032;-80
2023/04/20 09:11:28;;;;;;;6.97;5.47;;;9.20;99.90;;;;;;5047080;28;20040;-80
2023/04/20 09:14:03;;;;;;;8.32;5.75;;;9.60;99.90;;;;;;5049756;28;20032;-78
2023/04/20 09:16:30;;;;;;;9.25;7.05;;;9.50;99.90;;;;;;5057173;28;20039;-80
2023/04/20 09:18:56;;;;;;;8.85;5.60;;;9.50;99.90;;;;;;5063466;28;20035;-80
2023/04/20 09:21:24;;;;;;;9.05;6.57;;;9.50;99.90;;;;;;5063687;28;20036;-79
2023/04/20 09:23:58;;;;;;;8.18;6.00;;;9.60;99.90;;;;;;5070486;28;20036;-80
2023/04/20 09:26:24;;;;;;;9.68;6.60;;;10.30;99.90;;;;;;5062064;28;20656;-79
2023/04/20 09:28:50;;;;;;;8.18;6.53;;;10.10;99.90;;;;;;5074367;28;20279;-80
2023/04/20 09:31:22;;;;;;;7.65;6.30;;;10.40;99.90;;;;;;5066735;28;20116;-79
2023/04/20 09:33:58;;;;;;;6.43;5.72;;;10.50;99.90;;;;;;5069975;28;20040;-79
2023/04/20 09:36:37;;;;;;;10.18;6.65;;;10.20;99.90;;;;;;5059034;28;20037;-80
2023/04/20 09:39:10;;;;;;;8.20;6.25;;;10.30;99.90;;;;;;5064277;28;20043;-78
2023/04/20 09:41:36;;;;;;;7.80;6.68;;;10.20;99.90;;;;;;5050878;28;20518;-80
2023/04/20 09:44:03;;;;;;;8.75;6.22;;;10.30;99.90;;;;;;5062814;28;20036;-80
2023/04/20 09:46:32;;;;;;;7.47;6.43;;;10.30;99.90;;;;;;5058475;28;20040;-80
2023/04/20 09:49:00;;;;;;;7.65;6.35;;;10.30;99.90;;;;;;5041022;28;20043;-80
2023/04/20 09:51:30;;;;;;;9.38;6.57;;;10.50;99.90;;;;;;5067959;28;20408;-79
2023/04/20 09:54:00;;;;;;;10.43;7.45;;;10.60;99.90;;;;;;5044345;28;20064;-80
2023/04/20 09:56:27;;;;;;;8.27;7.05;;;10.80;99.90;;;;;;5064868;28;20565;-80
2023/04/20 09:58:54;;;;;;;8.65;6.82;;;11.10;99.90;;;;;;5056521;28;20643;-79
2023/04/20 10:01:21;;;;;;;8.15;7.25;;;11.00;99.90;;;;;;5050182;28;20039;-80
2023/04/20 10:03:48;;;;;;;9.63;7.10;;;11.10;99.90;;;;;;5048817;28;20047;-79
2023/04/20 10:06:34;;;;;;;8.30;7.50;;;10.90;99.90;;;;;;5056649;28;20515;-79
2023/04/20 10:09:02;;;;;;;8.38;7.53;;;11.00;99.90;;;;;;5040217;28;20036;-79
2023/04/20 10:11:30;;;;;;;10.35;7.95;;;10.80;99.90;;;;;;5059579;28;20046;-80
2023/04/20 10:13:57;;;;;;;11.68;7.32;;;10.80;99.90;;;;;;5039790;28;20047;-79
2023/04/20 10:16:23;;;;;;;8.75;7.93;;;10.70;99.90;;;;;;5074125;28;20043;-79
2023/04/20 10:19:01;;;;;;;8.75;7.88;;;10.50;99.90;;;;;;5050615;28;20492;-80
2023/04/20 10:21:28;;;;;;;11.10;7.95;;;10.70;99.90;;;;;;5062290;28;20067;-79
2023/04/20 10:23:53;;;;;;;9.18;8.05;;;10.80;99.90;;;;;;5064090;28;20112;-80
2023/04/20 10:26:19;;;;;;;10.30;8.82;;;10.70;99.90;;;;;;5049409;28;20055;-80
2023/04/20 10:28:45;;;;;;;9.88;7.57;;;10.60;99.90;;;;;;5060696;28;20567;-80
2023/04/20 10:31:14;;;;;;;8.93;8.13;;;10.60;99.90;;;;;;5046964;28;20045;-79
2023/04/20 10:33:55;;;;;;;10.13;8.45;;;10.60;99.90;;;;;;5065403;28;20042;-80
2023/04/20 10:36:35;;;;;;;11.68;8.73;;;10.60;99.90;;;;;;5067949;28;20092;-79
2023/04/20 10:39:21;;;;;;;11.10;9.10;;;10.70;99.90;;;;;;5055696;28;20044;-79
2023/04/20 10:41:54;;;;;;;11.02;9.30;;;10.70;99.90;;;;;;5052584;28;20048;-80
2023/04/20 10:44:20;;;;;;;11.30;8.98;;;10.70;99.90;;;;;;5063938;28;20072;-80
2023/04/20 10:46:50;;;;;;;10.88;9.15;;;11.00;99.90;;;;;;5073435;28;20710;-78
2023/04/20 10:49:16;;;;;;;11.25;9.10;;;11.20;99.90;;;;;;5066348;28;20036;-80
2023/04/20 10:51:49;;;;;;;11.60;9.93;;;11.90;99.90;;;;;;5065079;28;20028;-80
2023/04/20 10:54:15;;;;;;;10.03;9.03;;;12.70;99.90;;;;;;5063626;28;20510;-79
2023/04/20 10:56:46;;;;;;;11.05;9.80;;;13.50;99.90;;;;;;5059852;28;20041;-80
2023/04/20 10:59:16;;;;;;;9.63;8.73;;;14.10;99.90;;;;;;5061655;28;20040;-80
2023/04/20 11:01:43;;;;;;;9.43;8.38;;;14.90;99.90;;;;;;5074072;28;20484;-80
2023/04/20 11:04:10;;;;;;;10.77;8.60;;;15.00;99.90;;;;;;5063462;28;20522;-80
2023/04/20 11:06:40;;;;;;;11.18;8.40;;;15.10;99.90;;;;;;5066490;28;20040;-80
2023/04/20 11:09:19;;;;;;;9.10;8.15;;;15.40;99.90;;;;;;5053251;28;20424;-80
2023/04/20 11:11:45;;;;;;;9.00;8.10;;;15.30;99.90;;;;;;5066325;28;20028;-80
2023/04/20 11:14:12;;;;;;;10.45;8.40;;;15.40;99.90;;;;;;5058836;28;20094;-79
2023/04/20 11:16:38;;;;;;;8.55;7.75;;;15.30;99.90;;;;;;5054935;28;20401;-80
2023/04/20 11:19:04;;;;;;;8.23;7.43;;;15.10;99.90;;;;;;5066996;28;20050;-80
2023/04/20 11:21:38;;;;;;;8.40;7.50;;;15.80;99.90;;;;;;5062809;28;20065;-80
2023/04/20 11:24:05;;;;;;;8.90;8.10;;;15.70;99.90;;;;;;5044170;28;20132;-79
2023/04/20 11:26:39;;;;;;;9.82;7.68;;;15.80;99.90;;;;;;5049962;28;20060;-80
2023/04/20 11:29:05;;;;;;;8.02;7.28;;;16.00;99.90;;;;;;5058333;28;20102;-78
2023/04/20 11:31:31;;;;;;;8.57;7.70;;;16.00;99.90;;;;;;5052181;28;20079;-81
2023/04/20 11:33:57;;;;;;;8.90;8.10;;;15.60;99.90;;;;;;5047722;28;20068;-80
2023/04/20 11:36:25;;;;;;;8.60;7.85;;;15.10;99.90;;;;;;5069247;28;20044;-80
2023/04/20 11:38:51;;;;;;;8.93;8.07;;;14.50;99.90;;;;;;5047869;28;20118;-80
2023/04/20 11:41:17;;;;;;;8.73;7.93;;;14.30;99.90;;;;;;5069534;28;20079;-79
2023/04/20 11:43:43;;;;;;;9.98;8.80;;;14.20;99.90;;;;;;5049156;28;20037;-79
2023/04/20 11:46:14;;;;;;;9.32;8.43;;;14.20;99.90;;;;;;5068135;28;20051;-80
2023/04/20 11:48:40;;;;;;;9.95;9.02;;;14.70;99.90;;;;;;5074803;28;20040;-80
2023/04/20 11:51:06;;;;;;;10.38;9.38;;;15.30;99.90;;;;;;5057531;28;20047;-80
2023/04/20 11:53:31;;;;;;;10.50;9.50;;;15.90;99.90;;;;;;5073255;28;20040;-80
2023/04/20 11:55:57;;;;;;;10.50;9.40;;;16.10;99.90;;;;;;5067034;28;20081;-80
2023/04/20 11:58:22;;;;;;;10.02;9.02;;;15.50;99.90;;;;;;5051272;28;20119;-79
2023/04/20 12:00:48;;;;;;;10.63;8.85;;;15.40;99.90;;;;;;5058875;28;20044;-80
2023/04/20 12:03:13;;;;;;;10.93;9.43;;;14.50;99.90;;;;;;5063619;28;20123;-80
2023/04/20 12:05:39;;;;;;;9.85;8.93;;;14.00;99.90;;;;;;5059517;28;20040;-80
2023/04/20 12:08:07;;;;;;;9.75;8.85;;;13.70;99.90;;;;;;5061934;28;20032;-80
2023/04/20 12:10:32;;;;;;;9.95;8.98;;;13.60;99.90;;;;;;5058473;28;20052;-80
2023/04/20 12:12:59;;;;;;;9.85;8.80;;;13.40;99.90;;;;;;5067959;28;20133;-80
2023/04/20 12:15:26;;;;;;;9.55;8.65;;;13.40;99.90;;;;;;5043456;28;20100;-80
2023/04/20 12:17:52;;;;;;;9.68;8.75;;;13.60;99.90;;;;;;5066514;28;20042;-80
2023/04/20 12:20:17;;;;;;;11.13;9.07;;;13.50;99.90;;;;;;5045509;28;20123;-80
2023/04/20 12:22:43;;;;;;;9.85;8.88;;;13.50;99.90;;;;;;5060213;28;20044;-79
2023/04/20 12:25:09;;;;;;;11.05;9.32;;;13.80;99.90;;;;;;5045901;28;20040;-80
2023/04/20 12:27:34;;;;;;;9.75;8.75;;;13.70;99.90;;;;;;5058157;28;20041;-79
2023/04/20 12:30:00;;;;;;;9.73;8.77;;;13.90;99.90;;;;;;5047451;28;20119;-80
2023/04/20 12:32:25;;;;;;;11.82;8.38;;;13.60;99.90;;;;;;5049543;28;20406;-79
2023/04/20 12:34:51;;;;;;;8.98;7.93;;;13.60;99.90;;;;;;5041660;28;20480;-80
2023/04/20 12:37:18;;;;;;;11.23;8.25;;;14.30;99.90;;;;;;5066680;28;20054;-80
2023/04/20 12:39:44;;;;;;;8.25;7.50;;;15.60;99.90;;;;;;5048950;28;20032;-80
2023/04/20 12:42:10;;;;;;;8.95;8.15;;;16.30;99.90;;;;;;5051977;28;20063;-80
2023/04/20 12:44:35;;;;;;;8.23;7.53;;;16.30;92.80;;;;;;5064851;28;20050;-79
2023/04/20 12:47:01;;;;;;;8.50;6.65;;;15.70;86.00;;;;;;5064363;28;20400;-80
2023/04/20 12:49:27;;;;;;;7.85;6.53;;;15.10;90.80;;;;;;5073357;28;20565;-80